Time;durP1;ratioP1;P1;durP2;ratioP2;P2;SDS_P1;SDS_P2;PMS_P1;PMS_P2;Temp;Humidity;BMP_temperature;BMP_pressure;BME280_temperature;BME280_humidity;BME280_pressure;Samples;Min_cycle;Max_cycle;Signal;HPM_P1;HPM_P2
2022/06/14 00:02:57;;;;;;;6.75;4.70;;;12.60;99.90;;;;;;6155768;23;20152;-89
2022/06/14 00:05:25;;;;;;;9.85;6.05;;;12.60;99.90;;;;;;6155486;23;20165;-89
2022/06/14 00:07:53;;;;;;;7.68;5.15;;;12.60;99.90;;;;;;6131389;23;20276;-90
2022/06/14 00:10:26;;;;;;;7.97;5.78;;;12.70;99.90;;;;;;6155794;23;20158;-89
2022/06/14 00:12:52;;;;;;;8.30;5.63;;;;;;;;;;6155828;23;20585;-88
2022/06/14 00:15:18;;;;;;;11.63;6.20;;;12.60;99.90;;;;;;6156138;23;20177;-88
2022/06/14 00:17:44;;;;;;;8.85;5.28;;;;;;;;;;6131401;23;20165;-90
2022/06/14 00:20:11;;;;;;;7.70;5.47;;;12.60;99.90;;;;;;6130794;23;20187;-89
2022/06/14 00:22:37;;;;;;;8.95;6.47;;;12.60;99.90;;;;;;6130501;23;20172;-89
2022/06/14 00:25:06;;;;;;;6.90;4.90;;;12.50;99.90;;;;;;6155090;23;20157;-90
2022/06/14 00:27:32;;;;;;;6.82;4.65;;;12.50;99.90;;;;;;6156865;23;20185;-89
2022/06/14 00:29:58;;;;;;;7.00;4.63;;;12.50;99.90;;;;;;6155151;23;20604;-90
2022/06/14 00:32:23;;;;;;;6.38;4.57;;;12.50;99.90;;;;;;6155973;23;20160;-90
2022/06/14 00:34:50;;;;;;;7.10;5.63;;;;;;;;;;6106828;23;20157;-90
2022/06/14 00:37:18;;;;;;;5.45;4.03;;;12.50;99.90;;;;;;6156983;23;20187;-89
2022/06/14 00:39:44;;;;;;;6.65;4.40;;;12.90;99.90;;;;;;6155924;23;20157;-89
2022/06/14 00:42:21;;;;;;;5.72;4.35;;;12.50;99.90;;;;;;6155531;23;20213;-90
2022/06/14 00:45:12;;;;;;;11.73;5.03;;;12.40;99.90;;;;;;6167025;23;20170;-90
2022/06/14 00:47:58;;;;;;;9.05;4.65;;;12.40;99.90;;;;;;6132881;23;20189;-89
2022/06/14 00:50:43;;;;;;;7.75;5.18;;;12.40;99.90;;;;;;6164471;23;20725;-89
2022/06/14 00:53:37;;;;;;;3.92;3.35;;;12.30;99.90;;;;;;6156480;23;20206;-90
2022/06/14 00:56:13;;;;;;;4.90;3.80;;;12.30;99.90;;;;;;6115700;23;20280;-88
2022/06/14 00:58:48;;;;;;;8.15;4.32;;;12.20;99.90;;;;;;6155691;23;20164;-90
2022/06/14 01:01:20;;;;;;;6.05;4.45;;;12.20;99.90;;;;;;6155419;23;20157;-88
2022/06/14 01:03:52;;;;;;;5.70;3.95;;;12.20;99.90;;;;;;6157294;23;20148;-88
2022/06/14 01:06:24;;;;;;;5.15;4.05;;;12.00;99.90;;;;;;6165599;23;20157;-90
2022/06/14 01:09:05;;;;;;;5.20;4.10;;;12.10;99.90;;;;;;6159436;23;20177;-91
2022/06/14 01:11:36;;;;;;;6.00;3.72;;;12.10;99.90;;;;;;6155450;23;20159;-89
2022/06/14 01:14:04;;;;;;;5.00;3.75;;;13.40;99.90;;;;;;6155361;23;20149;-88
2022/06/14 01:16:31;;;;;;;7.63;4.10;;;12.40;99.90;;;;;;6157427;23;20159;-89
2022/06/14 01:18:58;;;;;;;5.35;3.85;;;12.00;99.90;;;;;;6160061;23;20154;-89
2022/06/14 01:21:24;;;;;;;7.13;4.00;;;12.30;99.90;;;;;;6175440;23;20180;-88
2022/06/14 01:23:50;;;;;;;4.22;3.15;;;12.00;99.90;;;;;;6180209;23;20165;-88
2022/06/14 01:26:22;;;;;;;4.50;3.67;;;11.90;99.90;;;;;;6179727;23;20152;-89
2022/06/14 01:28:55;;;;;;;4.95;4.05;;;11.90;99.90;;;;;;6181198;23;20170;-88
2022/06/14 01:31:27;;;;;;;9.30;3.67;;;11.90;99.90;;;;;;6182092;23;20138;-88
2022/06/14 01:34:03;;;;;;;7.30;4.35;;;12.40;99.90;;;;;;6179257;23;20137;-90
2022/06/14 01:36:34;;;;;;;5.80;4.45;;;11.90;99.90;;;;;;6181338;23;20133;-89
2022/06/14 01:39:03;;;;;;;6.25;4.32;;;11.90;99.90;;;;;;6182428;23;20145;-89
2022/06/14 01:41:48;;;;;;;13.88;5.47;;;11.90;99.90;;;;;;6178613;23;20146;-88
2022/06/14 01:44:26;;;;;;;8.38;5.18;;;11.80;99.90;;;;;;6168906;23;20212;-88
2022/06/14 01:47:17;;;;;;;5.43;4.18;;;11.80;99.90;;;;;;6172066;23;20158;-91
2022/06/14 01:53:24;;;;;;;5.13;3.75;;;11.70;99.90;;;;;;6169549;23;20219;-90
2022/06/14 01:55:56;;;;;;;5.88;4.75;;;11.80;99.90;;;;;;6158691;23;20174;-91
2022/06/14 01:58:51;;;;;;;9.15;5.03;;;11.70;99.90;;;;;;6156325;23;20188;-90
2022/06/14 02:01:40;;;;;;;7.22;4.90;;;11.50;99.90;;;;;;6182300;23;20206;-91
2022/06/14 02:04:38;;;;;;;6.70;4.65;;;11.40;99.90;;;;;;6184132;23;20180;-90
2022/06/14 02:07:30;;;;;;;11.27;5.82;;;11.50;99.90;;;;;;6183304;23;20145;-92
2022/06/14 02:10:05;;;;;;;11.70;6.25;;;11.70;99.90;;;;;;6183235;23;20184;-91
2022/06/14 02:12:58;;;;;;;9.05;5.93;;;11.60;99.90;;;;;;6183531;23;20147;-89
2022/06/14 02:15:45;;;;;;;6.50;5.00;;;11.40;99.90;;;;;;6183361;23;20188;-91
2022/06/14 02:18:40;;;;;;;9.70;6.20;;;11.30;99.90;;;;;;6183022;23;20141;-90
2022/06/14 02:21:19;;;;;;;9.15;6.05;;;11.50;99.90;;;;;;6178778;23;20202;-90
2022/06/14 02:23:48;;;;;;;15.95;7.07;;;11.50;99.90;;;;;;6182975;23;20148;-90
2022/06/14 02:26:23;;;;;;;13.95;6.97;;;11.80;99.90;;;;;;6183265;23;20133;-91
2022/06/14 02:28:55;;;;;;;11.55;7.07;;;11.60;99.90;;;;;;6182663;23;20199;-90
2022/06/14 02:31:31;;;;;;;11.65;6.90;;;11.50;99.90;;;;;;6163062;23;20149;-92
2022/06/14 02:34:02;;;;;;;13.05;6.82;;;11.70;99.90;;;;;;6155728;23;20470;-91
2022/06/14 02:36:36;;;;;;;13.07;6.20;;;11.80;99.90;;;;;;6154505;23;20161;-90
2022/06/14 02:39:08;;;;;;;15.52;7.60;;;11.40;99.90;;;;;;6154505;23;20148;-89
2022/06/14 02:41:39;;;;;;;13.05;8.30;;;11.50;99.90;;;;;;6155704;23;20200;-90
2022/06/14 02:44:11;;;;;;;16.88;8.23;;;11.40;99.90;;;;;;6154042;23;20235;-90
2022/06/14 02:46:53;;;;;;;16.52;8.70;;;11.50;99.90;;;;;;6153830;23;20221;-89
2022/06/14 02:49:40;;;;;;;14.60;8.43;;;11.50;99.90;;;;;;6155141;23;20181;-90
2022/06/14 02:52:18;;;;;;;17.02;10.00;;;11.50;99.90;;;;;;6155923;23;20164;-90
2022/06/14 02:55:00;;;;;;;16.42;9.38;;;11.50;99.90;;;;;;6155759;23;20141;-90
2022/06/14 02:57:50;;;;;;;20.88;11.80;;;11.50;99.90;;;;;;6153928;23;20580;-90
2022/06/14 03:00:24;;;;;;;17.67;10.75;;;11.60;99.90;;;;;;6154558;23;20232;-90
2022/06/14 03:03:03;;;;;;;17.50;10.32;;;11.50;99.90;;;;;;6154989;23;20644;-90
2022/06/14 03:06:09;;;;;;;19.02;10.90;;;11.50;99.90;;;;;;6155456;23;20152;-91
2022/06/14 03:08:45;;;;;;;17.63;9.68;;;11.50;99.90;;;;;;6137975;23;20654;-88
2022/06/14 03:11:46;;;;;;;20.45;9.27;;;11.40;99.90;;;;;;6155842;23;20149;-91
2022/06/14 03:14:38;;;;;;;19.38;7.88;;;11.50;99.90;;;;;;6155849;23;20585;-91
2022/06/14 03:17:10;;;;;;;15.82;7.97;;;12.10;99.90;;;;;;6153733;23;20157;-89
2022/06/14 03:19:41;;;;;;;13.82;7.07;;;11.50;99.90;;;;;;6153862;23;20171;-88
2022/06/14 03:22:17;;;;;;;14.75;6.07;;;11.50;99.90;;;;;;6155738;23;20152;-89
2022/06/14 03:25:14;;;;;;;12.52;6.53;;;11.60;99.90;;;;;;6153432;23;20562;-89
2022/06/14 03:27:47;;;;;;;12.38;5.55;;;11.20;99.90;;;;;;6155489;23;20668;-89
2022/06/14 03:30:21;;;;;;;9.13;5.85;;;11.70;99.90;;;;;;6153739;23;20235;-88
2022/06/14 03:32:55;;;;;;;7.47;5.43;;;11.40;99.90;;;;;;6154409;23;20161;-88
2022/06/14 03:35:30;;;;;;;9.52;4.75;;;11.60;99.90;;;;;;6154159;23;20157;-89
2022/06/14 03:38:00;;;;;;;10.38;5.57;;;11.70;99.90;;;;;;6154064;23;20161;-89
2022/06/14 03:40:26;;;;;;;8.45;4.78;;;11.10;99.90;;;;;;6153453;23;20172;-90
2022/06/14 03:42:52;;;;;;;7.55;4.80;;;11.60;99.90;;;;;;6154031;23;20181;-89
2022/06/14 03:45:24;;;;;;;6.63;4.72;;;11.60;99.90;;;;;;6153630;23;20189;-89
2022/06/14 03:47:49;;;;;;;6.30;4.15;;;11.80;99.90;;;;;;6153445;23;20209;-89
2022/06/14 03:50:27;;;;;;;8.55;4.63;;;11.90;99.90;;;;;;6153545;23;20208;-88
2022/06/14 03:53:25;;;;;;;6.20;4.18;;;11.90;99.90;;;;;;6154224;23;20181;-89
2022/06/14 03:56:23;;;;;;;6.38;3.92;;;12.10;99.90;;;;;;6154700;23;20167;-89
2022/06/14 03:59:19;;;;;;;10.23;5.20;;;12.20;99.90;;;;;;6114030;23;20161;-89
2022/06/14 04:01:58;;;;;;;6.80;3.75;;;12.20;99.90;;;;;;6111053;23;20200;-89
2022/06/14 04:04:54;;;;;;;6.95;3.72;;;12.20;99.90;;;;;;6157882;23;20142;-87
2022/06/14 04:07:42;;;;;;;6.43;4.47;;;12.50;99.90;;;;;;6155597;23;20149;-89
2022/06/14 04:10:16;;;;;;;6.40;3.55;;;12.40;99.90;;;;;;6131218;23;20161;-88
2022/06/14 04:13:15;;;;;;;4.10;3.35;;;12.40;99.90;;;;;;6130848;23;20476;-89
2022/06/14 04:15:49;;;;;;;6.07;3.63;;;12.60;99.90;;;;;;6130685;23;20212;-89
2022/06/14 04:18:39;;;;;;;3.80;3.03;;;12.60;99.90;;;;;;6131838;23;20589;-87
2022/06/14 04:21:10;;;;;;;7.70;4.05;;;12.70;99.90;;;;;;6155601;23;20160;-88
2022/06/14 04:23:53;;;;;;;9.63;4.00;;;12.80;99.90;;;;;;6130593;23;20153;-88
2022/06/14 04:26:40;;;;;;;7.45;4.82;;;12.90;99.90;;;;;;6130955;23;20239;-88
2022/06/14 04:29:27;;;;;;;5.97;3.78;;;13.00;99.90;;;;;;6155729;23;20193;-89
2022/06/14 04:32:17;;;;;;;6.00;4.80;;;12.90;99.90;;;;;;6156409;23;20146;-87
2022/06/14 04:34:45;;;;;;;7.35;4.50;;;13.00;99.90;;;;;;6155571;23;20160;-88
2022/06/14 04:37:26;;;;;;;5.13;3.63;;;13.10;99.90;;;;;;6155271;23;20215;-88
2022/06/14 04:40:00;;;;;;;4.53;2.50;;;13.20;99.90;;;;;;6130423;23;20599;-87
2022/06/14 04:42:38;;;;;;;2.95;2.42;;;13.20;99.90;;;;;;6155357;23;20159;-87
2022/06/14 04:45:07;;;;;;;3.60;2.65;;;13.30;99.90;;;;;;6130657;23;20157;-89
2022/06/14 04:48:00;;;;;;;3.00;2.63;;;13.30;99.90;;;;;;6129902;23;20161;-88
2022/06/14 04:50:40;;;;;;;7.50;4.32;;;13.30;99.90;;;;;;6151449;23;20280;-89
2022/06/14 04:53:17;;;;;;;2.53;1.92;;;13.40;99.90;;;;;;6078472;23;20158;-89
2022/06/14 04:55:55;;;;;;;3.05;2.50;;;13.60;99.90;;;;;;6108114;23;20161;-89
2022/06/14 04:58:25;;;;;;;2.70;1.80;;;13.30;99.90;;;;;;6111598;23;20165;-89
2022/06/14 05:00:58;;;;;;;4.85;2.10;;;13.50;99.90;;;;;;6105410;23;20612;-90
2022/06/14 05:03:33;;;;;;;2.55;1.75;;;13.60;99.90;;;;;;6101535;23;20241;-89
2022/06/14 05:06:04;;;;;;;4.05;2.40;;;14.00;99.90;;;;;;6101522;23;20161;-89
2022/06/14 05:08:36;;;;;;;2.72;2.13;;;13.70;99.90;;;;;;6100802;23;20272;-88
2022/06/14 05:11:14;;;;;;;6.13;2.80;;;13.90;99.90;;;;;;6100875;23;20581;-89
2022/06/14 05:13:46;;;;;;;3.53;2.40;;;13.80;99.90;;;;;;6100646;23;20154;-89
2022/06/14 05:16:37;;;;;;;4.70;2.92;;;14.00;99.90;;;;;;6104320;23;20154;-88
2022/06/14 05:19:26;;;;;;;3.88;1.83;;;14.00;99.90;;;;;;6094546;23;20166;-89
2022/06/14 05:22:08;;;;;;;3.50;2.40;;;14.00;99.90;;;;;;6103189;23;20196;-87
2022/06/14 05:24:35;;;;;;;2.25;1.90;;;14.30;99.90;;;;;;6107180;23;20154;-88
2022/06/14 05:27:13;;;;;;;2.95;1.90;;;14.00;99.90;;;;;;6103441;23;20161;-88
2022/06/14 05:29:51;;;;;;;3.78;1.70;;;14.00;99.90;;;;;;6100484;23;20212;-89
2022/06/14 05:32:44;;;;;;;1.67;1.58;;;14.00;99.90;;;;;;6139617;23;20242;-88
2022/06/14 05:35:36;;;;;;;1.95;1.45;;;13.20;99.90;;;;;;6102274;23;20459;-89
2022/06/14 05:38:18;;;;;;;1.88;1.67;;;14.20;99.90;;;;;;6100500;23;20165;-89
2022/06/14 05:40:53;;;;;;;4.53;2.03;;;14.30;99.90;;;;;;6100476;23;20158;-87
2022/06/14 05:43:38;;;;;;;3.30;1.75;;;14.20;99.90;;;;;;6100394;23;20150;-88
2022/06/14 05:46:08;;;;;;;1.63;1.52;;;14.40;99.90;;;;;;6099812;23;20208;-89
2022/06/14 05:48:58;;;;;;;2.65;1.63;;;14.50;99.90;;;;;;6125836;23;20197;-88
2022/06/14 05:51:41;;;;;;;2.10;1.73;;;14.50;99.90;;;;;;6125085;23;20248;-88
2022/06/14 05:54:37;;;;;;;1.95;1.33;;;14.70;99.90;;;;;;6154271;23;20293;-90
2022/06/14 05:57:05;;;;;;;1.42;1.30;;;;;;;;;;6149327;23;20161;-88
2022/06/14 05:59:47;;;;;;;5.95;1.60;;;14.80;99.90;;;;;;6153621;23;20161;-90
2022/06/14 06:02:45;;;;;;;1.65;1.48;;;15.10;99.90;;;;;;6153856;23;20157;-89
2022/06/14 06:05:22;;;;;;;3.45;1.63;;;14.80;99.90;;;;;;6152299;23;20754;-92
2022/06/14 06:07:59;;;;;;;2.05;1.67;;;15.10;99.90;;;;;;6153707;23;20189;-91
2022/06/14 06:10:39;;;;;;;2.30;1.40;;;15.10;99.90;;;;;;6153470;23;20222;-90
2022/06/14 06:13:18;;;;;;;2.20;1.88;;;14.90;99.90;;;;;;6151232;23;20141;-89
2022/06/14 06:16:08;;;;;;;2.70;1.67;;;14.90;99.90;;;;;;6150054;23;20157;-91
2022/06/14 06:18:47;;;;;;;2.55;1.63;;;14.90;99.90;;;;;;6152587;23;20161;-90
2022/06/14 06:21:59;;;;;;;3.47;2.00;;;14.90;99.90;;;;;;6151326;23;20156;-90
2022/06/14 06:24:46;;;;;;;4.68;2.03;;;14.90;99.90;;;;;;6151362;23;20164;-92
2022/06/14 06:27:16;;;;;;;2.10;1.10;;;14.90;99.90;;;;;;6151787;23;20169;-90
2022/06/14 06:29:48;;;;;;;0.90;0.90;;;14.90;99.90;;;;;;6153572;23;20320;-90
2022/06/14 06:32:18;;;;;;;1.90;1.15;;;14.90;99.90;;;;;;6152655;23;20165;-92
2022/06/14 06:34:44;;;;;;;1.60;1.30;;;15.00;99.90;;;;;;6151104;23;20157;-91
2022/06/14 06:37:21;;;;;;;2.50;1.48;;;15.30;99.90;;;;;;6151883;23;20249;-91
2022/06/14 06:40:08;;;;;;;1.35;1.20;;;15.30;99.90;;;;;;6153506;23;20219;-90
2022/06/14 06:43:02;;;;;;;1.83;1.40;;;15.40;99.90;;;;;;6156556;23;20165;-94
2022/06/14 06:45:31;;;;;;;1.75;1.63;;;15.40;99.90;;;;;;6165231;23;20188;-91
2022/06/14 06:48:31;;;;;;;3.70;2.35;;;15.30;99.90;;;;;;6176869;23;20193;-90
2022/06/14 06:51:05;;;;;;;1.20;1.10;;;15.40;99.90;;;;;;6129737;23;20283;-92
2022/06/14 06:53:53;;;;;;;1.58;1.40;;;15.30;99.90;;;;;;6131003;23;20189;-91
2022/06/14 06:56:39;;;;;;;2.67;1.58;;;15.40;99.90;;;;;;6153020;23;20161;-89
2022/06/14 06:59:29;;;;;;;;;;;;;;;;;;;;;
2022/06/14 07:02:05;;;;;;;4.35;1.98;;;15.30;99.90;;;;;;6155949;23;20224;-92
2022/06/14 07:05:05;;;;;;;2.67;1.98;;;15.40;99.90;;;;;;6154752;23;20167;-91
2022/06/14 07:07:48;;;;;;;3.55;2.20;;;15.30;99.90;;;;;;6132151;23;20589;-90
2022/06/14 07:10:48;;;;;;;2.55;1.70;;;15.40;99.90;;;;;;6153776;23;20240;-90
2022/06/14 07:13:23;;;;;;;4.55;0.85;;;15.50;99.90;;;;;;6154735;23;20180;-90
2022/06/14 07:15:59;;;;;;;2.03;1.42;;;15.60;99.90;;;;;;6154124;23;20480;-90
2022/06/14 07:18:56;;;;;;;1.38;1.08;;;15.60;99.90;;;;;;6154059;23;20160;-88
2022/06/14 07:21:32;;;;;;;1.10;1.00;;;15.60;99.90;;;;;;6155877;23;20535;-94
2022/06/14 07:24:42;;;;;;;0.85;0.85;;;15.40;99.90;;;;;;6154310;23;20161;-93
2022/06/14 07:27:28;;;;;;;1.15;1.05;;;15.40;99.90;;;;;;6153232;23;20172;-91
2022/06/14 07:30:14;;;;;;;1.38;1.08;;;15.40;99.90;;;;;;6153215;23;20228;-92
2022/06/14 07:32:57;;;;;;;0.80;0.80;;;15.50;99.90;;;;;;6156055;23;20157;-91
2022/06/14 07:35:31;;;;;;;1.00;0.90;;;15.50;99.90;;;;;;6156719;23;20165;-93
2022/06/14 07:38:11;;;;;;;3.20;1.70;;;15.90;99.90;;;;;;6156652;23;20161;-90
2022/06/14 07:40:49;;;;;;;2.25;1.00;;;15.60;99.90;;;;;;6155377;23;20191;-89
2022/06/14 07:43:36;;;;;;;3.10;1.52;;;15.90;99.90;;;;;;6156438;23;20165;-88
2022/06/14 07:46:21;;;;;;;1.30;1.20;;;16.20;99.90;;;;;;6156642;23;20628;-90
2022/06/14 07:48:58;;;;;;;2.10;1.00;;;15.90;99.90;;;;;;6157479;23;20185;-89
2022/06/14 07:51:32;;;;;;;1.17;1.08;;;16.40;99.90;;;;;;6158498;23;20564;-90
2022/06/14 07:54:35;;;;;;;1.73;1.10;;;16.10;99.90;;;;;;6156044;23;20161;-89
2022/06/14 07:57:29;;;;;;;;;;;;;;;;;;;;;
2022/06/14 08:03:33;;;;;;;2.78;0.80;;;17.00;99.90;;;;;;6184423;23;20186;-91
2022/06/14 08:06:37;;;;;;;0.68;0.68;;;16.10;99.90;;;;;;6167681;23;20173;-91
2022/06/14 08:09:18;;;;;;;1.58;1.08;;;15.90;99.90;;;;;;6183065;23;20200;-90
2022/06/14 08:11:53;;;;;;;2.75;0.85;;;16.30;99.90;;;;;;6183763;23;20173;-88
2022/06/14 08:14:49;;;;;;;0.63;0.60;;;16.20;99.90;;;;;;6183913;23;20145;-89
2022/06/14 08:17:26;;;;;;;1.65;0.90;;;16.50;99.90;;;;;;6183658;23;20199;-88
2022/06/14 08:20:08;;;;;;;2.92;0.90;;;16.30;99.90;;;;;;6183599;23;20212;-87
2022/06/14 08:22:42;;;;;;;1.58;1.10;;;16.60;99.90;;;;;;6183730;23;20145;-87
2022/06/14 08:25:21;;;;;;;2.20;0.80;;;16.70;99.90;;;;;;6184434;23;20146;-89
2022/06/14 08:28:16;;;;;;;0.75;0.70;;;16.90;99.90;;;;;;6183989;23;20200;-88
2022/06/14 08:30:48;;;;;;;0.98;0.70;;;17.10;99.90;;;;;;6183544;23;20126;-89
2022/06/14 08:33:31;;;;;;;1.25;0.75;;;16.80;99.90;;;;;;6156747;23;20146;-89
2022/06/14 08:36:06;;;;;;;1.00;0.82;;;16.50;99.90;;;;;;6157591;23;20168;-88
2022/06/14 08:38:49;;;;;;;0.95;0.88;;;16.40;99.90;;;;;;6156544;23;20157;-88
2022/06/14 08:41:35;;;;;;;2.25;0.88;;;16.10;99.90;;;;;;6156241;23;20156;-91
2022/06/14 08:44:35;;;;;;;0.60;0.60;;;16.10;99.90;;;;;;6155345;23;20152;-89
2022/06/14 08:47:32;;;;;;;;;;;;;;;;;;;;;
2022/06/14 08:50:10;;;;;;;1.00;0.90;;;16.20;99.90;;;;;;6157143;23;20277;-89
2022/06/14 08:52:57;;;;;;;0.57;0.57;;;16.40;99.90;;;;;;6155740;23;20161;-89
2022/06/14 08:55:52;;;;;;;0.50;0.50;;;16.30;99.90;;;;;;6157324;23;20189;-90
2022/06/14 08:58:48;;;;;;;7.60;0.88;;;16.20;99.90;;;;;;6157927;23;20172;-90
2022/06/14 09:01:46;;;;;;;0.80;0.70;;;16.40;99.90;;;;;;6156681;23;20157;-90
2022/06/14 09:04:49;;;;;;;0.70;0.70;;;16.90;99.90;;;;;;6131292;23;20157;-88
2022/06/14 09:07:50;;;;;;;1.70;0.80;;;16.70;99.90;;;;;;6164790;23;20607;-88
2022/06/14 09:10:58;;;;;;;3.22;0.93;;;17.30;99.90;;;;;;6159633;23;20176;-89
2022/06/14 09:13:36;;;;;;;1.05;0.73;;;17.00;99.90;;;;;;6160068;23;20592;-89
2022/06/14 09:16:05;;;;;;;0.75;0.75;;;16.90;99.90;;;;;;6177203;23;20533;-89
2022/06/14 09:19:03;;;;;;;0.90;0.63;;;16.70;99.90;;;;;;6163590;23;20168;-89
2022/06/14 09:21:48;;;;;;;0.57;0.57;;;17.10;99.90;;;;;;6157167;23;20603;-88
2022/06/14 09:24:14;;;;;;;4.20;0.73;;;;;;;;;;6154866;23;20157;-88
2022/06/14 09:26:45;;;;;;;0.43;0.43;;;17.10;99.90;;;;;;6130583;23;20161;-88
2022/06/14 09:29:22;;;;;;;0.80;0.80;;;16.90;99.90;;;;;;6154987;23;20209;-90
2022/06/14 09:33:09;;;;;;;4.15;1.50;;;17.60;99.90;;;;;;6155280;23;20235;-89
2022/06/14 09:35:59;;;;;;;0.60;0.60;;;16.60;99.90;;;;;;6159594;23;20164;-88
2022/06/14 09:39:03;;;;;;;1.10;0.77;;;16.60;99.90;;;;;;6170530;23;20217;-89
2022/06/14 09:42:03;;;;;;;0.75;0.70;;;16.60;99.90;;;;;;6158830;23;20157;-89
2022/06/14 09:45:01;;;;;;;0.50;0.50;;;17.20;99.90;;;;;;6154870;23;20589;-90
2022/06/14 09:47:32;;;;;;;1.92;0.47;;;17.70;99.90;;;;;;6154012;23;20486;-89
2022/06/14 09:50:23;;;;;;;1.13;1.00;;;17.90;99.90;;;;;;6154312;23;20707;-91
2022/06/14 09:52:54;;;;;;;0.68;0.65;;;17.70;99.90;;;;;;6155786;23;20161;-88
2022/06/14 09:55:45;;;;;;;0.75;0.65;;;18.10;99.90;;;;;;6154456;23;20161;-88
2022/06/14 09:58:43;;;;;;;0.50;0.40;;;18.30;99.90;;;;;;6154876;23;20184;-88
2022/06/14 10:01:38;;;;;;;0.80;0.55;;;18.40;99.90;;;;;;6154920;23;20157;-90
2022/06/14 10:04:13;;;;;;;0.75;0.50;;;18.70;99.90;;;;;;6155691;23;20149;-91
2022/06/14 10:07:16;;;;;;;;;;;;;;;;;;;;;
2022/06/14 10:10:07;;;;;;;0.93;0.80;;;18.50;97.70;;;;;;6156490;23;20259;-92
2022/06/14 10:13:00;;;;;;;0.55;0.47;;;17.70;99.90;;;;;;6155014;23;20248;-90
2022/06/14 10:18:38;;;;;;;0.57;0.50;;;17.60;99.90;;;;;;6155262;23;20169;-90
2022/06/14 10:21:33;;;;;;;0.75;0.60;;;17.60;99.90;;;;;;6155074;23;20528;-90
2022/06/14 10:24:25;;;;;;;;;;;;;;;;;;;;;
2022/06/14 10:30:08;;;;;;;0.60;0.60;;;18.40;99.90;;;;;;6153005;23;20682;-88
2022/06/14 10:32:58;;;;;;;1.95;0.60;;;18.60;99.60;;;;;;6156173;23;20137;-88
2022/06/14 10:35:41;;;;;;;0.40;0.40;;;18.50;97.30;;;;;;6162416;23;20157;-91
2022/06/14 10:38:49;;;;;;;0.65;0.50;;;18.30;97.30;;;;;;6173420;23;20169;-92
2022/06/14 10:41:53;;;;;;;1.05;0.70;;;18.30;97.60;;;;;;6160403;23;20157;-91
2022/06/14 10:44:43;;;;;;;0.60;0.50;;;18.10;98.10;;;;;;6155168;23;20319;-89
2022/06/14 10:47:18;;;;;;;0.50;0.50;;;18.10;98.20;;;;;;6163615;23;20232;-90
2022/06/14 10:49:55;;;;;;;0.63;0.50;;;18.00;97.50;;;;;;6168556;23;20200;-92
2022/06/14 10:53:14;;;;;;;0.40;0.40;;;18.10;97.80;;;;;;6155097;23;20160;-92
2022/06/14 10:55:57;;;;;;;0.93;0.60;;;18.20;98.10;;;;;;6135304;23;20187;-90
2022/06/14 10:58:57;;;;;;;0.50;0.50;;;17.80;99.50;;;;;;6173106;23;20223;-90
2022/06/14 11:01:52;;;;;;;0.60;0.60;;;15.80;99.40;;;;;;6124459;23;20589;-89
2022/06/14 11:04:46;;;;;;;0.82;0.57;;;17.60;99.90;;;;;;6155385;23;20169;-90
2022/06/14 11:07:31;;;;;;;1.48;0.90;;;17.50;99.90;;;;;;6156769;23;20157;-91
2022/06/14 11:10:23;;;;;;;8.27;0.98;;;17.50;99.90;;;;;;6159360;23;20256;-91
2022/06/14 11:13:20;;;;;;;0.77;0.60;;;17.50;99.90;;;;;;6156954;23;20165;-91
2022/06/14 11:16:10;;;;;;;1.23;1.10;;;18.00;99.90;;;;;;6156352;23;20161;-91
2022/06/14 11:19:04;;;;;;;2.33;0.57;;;18.00;99.90;;;;;;6156070;23;20161;-90
2022/06/14 11:22:18;;;;;;;0.60;0.40;;;18.80;97.10;;;;;;6157547;23;20203;-90
2022/06/14 11:25:11;;;;;;;0.90;0.80;;;19.30;97.90;;;;;;6155841;23;20153;-88
2022/06/14 11:27:55;;;;;;;1.08;0.60;;;19.00;97.00;;;;;;6155885;23;20160;-89
2022/06/14 11:30:59;;;;;;;0.55;0.55;;;18.40;96.70;;;;;;6156785;23;20161;-90
2022/06/14 11:33:42;;;;;;;0.43;0.43;;;18.10;95.80;;;;;;6155678;23;20161;-90
2022/06/14 11:36:27;;;;;;;0.88;0.60;;;18.10;96.10;;;;;;6155882;23;20185;-90
2022/06/14 11:39:00;;;;;;;0.43;0.43;;;18.00;96.10;;;;;;6131157;23;20169;-89
2022/06/14 11:41:34;;;;;;;0.70;0.70;;;17.50;96.80;;;;;;6156438;23;20165;-90
2022/06/14 11:44:11;;;;;;;0.50;0.50;;;17.60;98.60;;;;;;6158095;23;20216;-91
2022/06/14 11:47:15;;;;;;;0.73;0.73;;;17.60;98.50;;;;;;6156310;23;20566;-90
2022/06/14 11:50:12;;;;;;;2.47;0.77;;;17.70;96.90;;;;;;6156066;23;20209;-91
2022/06/14 11:53:10;;;;;;;0.82;0.57;;;18.20;97.10;;;;;;6156218;23;20589;-89
2022/06/14 11:55:51;;;;;;;0.82;0.70;;;17.90;96.60;;;;;;6118762;23;20168;-89
2022/06/14 11:58:36;;;;;;;0.75;0.65;;;21.40;99.80;;;;;;6156399;23;20608;-92
2022/06/14 12:01:19;;;;;;;0.88;0.65;;;18.10;97.40;;;;;;6156510;23;20169;-90
2022/06/14 12:04:12;;;;;;;0.93;0.50;;;18.40;96.70;;;;;;6155870;23;20157;-90
2022/06/14 12:06:49;;;;;;;0.80;0.80;;;18.50;97.00;;;;;;6155472;23;20158;-90
2022/06/14 12:09:27;;;;;;;1.50;0.60;;;18.70;94.30;;;;;;6131347;23;20628;-89
2022/06/14 12:12:19;;;;;;;0.80;0.70;;;18.80;96.70;;;;;;6155736;23;20172;-90
2022/06/14 12:15:02;;;;;;;1.48;0.80;;;19.00;97.10;;;;;;6155352;23;20271;-90
2022/06/14 12:17:47;;;;;;;2.05;0.50;;;18.80;97.50;;;;;;6158610;23;20142;-91
2022/06/14 12:20:17;;;;;;;3.20;1.38;;;18.50;95.70;;;;;;6156013;23;20165;-91
2022/06/14 12:23:20;;;;;;;0.60;0.60;;;18.30;94.40;;;;;;6155529;23;20161;-92
2022/06/14 12:26:34;;;;;;;0.60;0.60;;;18.80;92.50;;;;;;6155742;23;20161;-91
2022/06/14 12:29:14;;;;;;;0.40;0.40;;;22.00;94.50;;;;;;6155839;23;20211;-90
2022/06/14 12:31:52;;;;;;;0.60;0.50;;;19.00;90.00;;;;;;6155643;23;20529;-89
2022/06/14 12:34:19;;;;;;;0.50;0.50;;;;;;;;;;6155662;23;20245;-90
2022/06/14 12:37:05;;;;;;;1.27;0.60;;;19.40;77.20;;;;;;6155577;23;20168;-92
2022/06/14 12:39:55;;;;;;;0.70;0.65;;;20.50;78.90;;;;;;6155688;23;20157;-89
2022/06/14 12:42:30;;;;;;;0.45;0.45;;;19.30;79.00;;;;;;6156228;23;20161;-93
2022/06/14 12:44:58;;;;;;;0.88;0.80;;;19.20;79.90;;;;;;6155552;23;20157;-89
2022/06/14 12:47:54;;;;;;;1.23;0.60;;;19.20;80.80;;;;;;6155246;23;20157;-88
2022/06/14 12:50:43;;;;;;;4.28;1.10;;;19.10;82.00;;;;;;6127579;23;20255;-90
2022/06/14 12:53:47;;;;;;;0.50;0.50;;;19.20;84.50;;;;;;6155808;23;20166;-90
2022/06/14 12:56:27;;;;;;;0.75;0.75;;;19.00;85.90;;;;;;6074136;23;20169;-89
2022/06/14 12:59:16;;;;;;;8.10;1.00;;;19.10;89.70;;;;;;6150894;23;20167;-89
2022/06/14 13:01:53;;;;;;;1.48;0.70;;;20.80;90.20;;;;;;6156763;23;20522;-89
2022/06/14 13:04:52;;;;;;;0.50;0.50;;;19.20;89.60;;;;;;6157984;23;20159;-90
2022/06/14 13:07:30;;;;;;;0.60;0.60;;;19.40;90.30;;;;;;6154555;23;20165;-91
2022/06/14 13:10:20;;;;;;;0.50;0.50;;;19.10;89.60;;;;;;6155821;23;20189;-89
2022/06/14 13:12:46;;;;;;;0.65;0.65;;;;;;;;;;6156970;23;20157;-86
2022/06/14 13:15:35;;;;;;;0.75;0.60;;;18.80;87.90;;;;;;6157317;23;20165;-89
2022/06/14 13:18:38;;;;;;;0.70;0.57;;;18.70;82.50;;;;;;6132762;23;20157;-89
2022/06/14 13:21:18;;;;;;;0.75;0.55;;;18.70;83.10;;;;;;6157448;23;20219;-87
2022/06/14 13:24:14;;;;;;;1.40;0.75;;;18.90;83.00;;;;;;6157513;23;20161;-87
2022/06/14 13:27:05;;;;;;;0.60;0.60;;;19.10;80.20;;;;;;6159920;23;20157;-88
2022/06/14 13:29:44;;;;;;;0.60;0.60;;;19.10;80.20;;;;;;6161225;23;20184;-89
2022/06/14 13:32:31;;;;;;;0.32;0.32;;;19.00;81.00;;;;;;6156843;23;20515;-90
2022/06/14 13:35:23;;;;;;;0.95;0.50;;;19.10;83.30;;;;;;6156346;23;20149;-90
2022/06/14 13:38:05;;;;;;;1.30;0.88;;;19.40;82.20;;;;;;6161842;23;20173;-90
2022/06/14 13:40:45;;;;;;;1.33;0.68;;;19.30;82.00;;;;;;6166145;23;20236;-89
2022/06/14 13:43:33;;;;;;;0.73;0.50;;;19.30;82.70;;;;;;6162777;23;20138;-87
2022/06/14 13:46:31;;;;;;;0.90;0.57;;;19.20;83.50;;;;;;6131529;23;20160;-88
2022/06/14 13:49:16;;;;;;;0.60;0.60;;;19.00;85.00;;;;;;6135472;23;20189;-88
2022/06/14 13:51:55;;;;;;;2.65;0.50;;;18.90;85.50;;;;;;6161039;23;20154;-89
2022/06/14 13:54:31;;;;;;;1.63;0.57;;;19.10;82.70;;;;;;6159763;23;20160;-90
2022/06/14 13:57:10;;;;;;;1.45;0.65;;;19.30;82.30;;;;;;6133979;23;20227;-89
2022/06/14 13:59:39;;;;;;;0.63;0.60;;;19.30;81.30;;;;;;6160843;23;20192;-87
2022/06/14 14:02:39;;;;;;;0.50;0.50;;;19.40;83.60;;;;;;6167881;23;20173;-89
2022/06/14 14:05:23;;;;;;;2.22;0.95;;;19.50;80.30;;;;;;6154383;23;20161;-87
2022/06/14 14:07:49;;;;;;;0.50;0.50;;;;;;;;;;6183040;23;20129;-88
2022/06/14 14:10:53;;;;;;;3.15;0.70;;;19.40;79.60;;;;;;6158211;23;20142;-87
2022/06/14 14:13:26;;;;;;;1.65;0.63;;;19.30;81.10;;;;;;6157370;23;20208;-87
2022/06/14 14:16:28;;;;;;;0.98;0.55;;;19.20;83.00;;;;;;6182759;23;20149;-87
2022/06/14 14:19:18;;;;;;;0.50;0.50;;;19.00;85.80;;;;;;6139194;23;20144;-90
2022/06/14 14:21:51;;;;;;;1.20;0.70;;;19.00;87.40;;;;;;6158592;23;20145;-89
2022/06/14 14:24:36;;;;;;;1.33;0.77;;;19.00;81.90;;;;;;6156407;23;20271;-88
2022/06/14 14:27:48;;;;;;;0.63;0.57;;;19.00;81.80;;;;;;6183019;23;20154;-88
2022/06/14 14:30:14;;;;;;;1.25;0.70;;;;;;;;;;6178661;23;20225;-90
2022/06/14 14:32:48;;;;;;;0.60;0.60;;;18.70;82.80;;;;;;6182910;23;20152;-87